sensor_id;sensor_type;location;lat;lon;timestamp;pressure;altitude;pressure_sealevel;temperature;humidity
29569;BME280;16501;51.462;14.346;2023-04-08T00:02:06;100456.44;;;4.17;100.00
29569;BME280;16501;51.462;14.346;2023-04-08T00:04:32;100441.47;;;4.11;100.00
29569;BME280;16501;51.462;14.346;2023-04-08T00:06:57;100462.78;;;4.18;100.00
29569;BME280;16501;51.462;14.346;2023-04-08T00:09:22;100450.91;;;4.17;100.00
29569;BME280;16501;51.462;14.346;2023-04-08T00:11:47;100434.50;;;4.03;100.00
29569;BME280;16501;51.462;14.346;2023-04-08T00:14:12;100450.13;;;4.17;100.00
29569;BME280;16501;51.462;14.346;2023-04-08T00:16:38;100443.06;;;4.12;100.00
29569;BME280;16501;51.462;14.346;2023-04-08T00:19:03;100449.44;;;4.09;100.00
29569;BME280;16501;51.462;14.346;2023-04-08T00:21:30;100449.44;;;4.09;100.00
29569;BME280;16501;51.462;14.346;2023-04-08T00:23:55;100442.34;;;4.08;100.00
29569;BME280;16501;51.462;14.346;2023-04-08T00:26:21;100453.31;;;4.15;100.00
29569;BME280;16501;51.462;14.346;2023-04-08T00:28:47;100461.16;;;4.20;100.00
29569;BME280;16501;51.462;14.346;2023-04-08T00:31:12;100441.94;;;4.09;100.00
29569;BME280;16501;51.462;14.346;2023-04-08T00:33:37;100459.56;;;4.19;100.00
29569;BME280;16501;51.462;14.346;2023-04-08T00:36:03;100440.00;;;4.06;100.00
29569;BME280;16501;51.462;14.346;2023-04-08T00:38:28;100433.78;;;3.99;100.00
29569;BME280;16501;51.462;14.346;2023-04-08T00:40:54;100449.31;;;4.16;100.00
29569;BME280;16501;51.462;14.346;2023-04-08T00:43:20;100436.81;;;4.08;100.00
29569;BME280;16501;51.462;14.346;2023-04-08T00:45:46;100451.75;;;4.14;100.00
29569;BME280;16501;51.462;14.346;2023-04-08T00:48:11;100462.72;;;4.21;100.00
29569;BME280;16501;51.462;14.346;2023-04-08T00:50:36;100465.19;;;4.15;100.00
29569;BME280;16501;51.462;14.346;2023-04-08T00:53:02;100456.16;;;4.11;100.00
29569;BME280;16501;51.462;14.346;2023-04-08T00:55:27;100452.59;;;4.11;100.00
29569;BME280;16501;51.462;14.346;2023-04-08T00:57:52;100440.00;;;4.06;100.00
29569;BME280;16501;51.462;14.346;2023-04-08T01:00:18;100463.50;;;4.22;100.00
29569;BME280;16501;51.462;14.346;2023-04-08T01:03:09;100407.00;;;3.88;100.00
29569;BME280;16501;51.462;14.346;2023-04-08T01:06:04;100455.25;;;4.18;100.00
29569;BME280;16501;51.462;14.346;2023-04-08T01:08:32;100459.94;;;4.21;100.00
29569;BME280;16501;51.462;14.346;2023-04-08T01:11:01;100464.34;;;4.19;100.00
29569;BME280;16501;51.462;14.346;2023-04-08T01:13:30;100458.31;;;4.24;100.00
29569;BME280;16501;51.462;14.346;2023-04-08T01:15:56;100446.19;;;4.14;100.00
29569;BME280;16501;51.462;14.346;2023-04-08T01:18:22;100458.38;;;4.20;100.00
29569;BME280;16501;51.462;14.346;2023-04-08T01:20:48;100472.13;;;4.27;100.00
29569;BME280;16501;51.462;14.346;2023-04-08T01:23:38;100464.94;;;4.30;100.00
29569;BME280;16501;51.462;14.346;2023-04-08T01:26:05;100456.44;;;4.17;100.00
29569;BME280;16501;51.462;14.346;2023-04-08T01:28:32;100459.94;;;4.21;100.00
29569;BME280;16501;51.462;14.346;2023-04-08T01:31:01;100465.00;;;4.26;100.00
29569;BME280;16501;51.462;14.346;2023-04-08T01:33:27;100473.63;;;4.32;100.00
29569;BME280;16501;51.462;14.346;2023-04-08T01:35:53;100458.75;;;4.22;100.00
29569;BME280;16501;51.462;14.346;2023-04-08T01:38:19;100474.06;;;4.30;100.00
29569;BME280;16501;51.462;14.346;2023-04-08T01:40:46;100443.78;;;4.16;100.00
29569;BME280;16501;51.462;14.346;2023-04-08T01:43:13;100447.50;;;4.06;100.00
29569;BME280;16501;51.462;14.346;2023-04-08T01:45:45;100464.13;;;4.09;100.00
29569;BME280;16501;51.462;14.346;2023-04-08T01:48:12;100467.47;;;4.21;100.00
29569;BME280;16501;51.462;14.346;2023-04-08T01:50:39;100458.50;;;4.13;100.00
29569;BME280;16501;51.462;14.346;2023-04-08T01:53:07;100472.25;;;4.20;100.00
29569;BME280;16501;51.462;14.346;2023-04-08T01:55:33;100472.97;;;4.24;100.00
29569;BME280;16501;51.462;14.346;2023-04-08T01:58:00;100459.50;;;4.23;100.00
29569;BME280;16501;51.462;14.346;2023-04-08T02:00:28;100469.34;;;4.27;100.00
29569;BME280;16501;51.462;14.346;2023-04-08T02:02:54;100477.19;;;4.32;100.00
29569;BME280;16501;51.462;14.346;2023-04-08T02:05:19;100483.88;;;4.35;100.00
29569;BME280;16501;51.462;14.346;2023-04-08T02:07:46;100465.81;;;4.27;100.00
29569;BME280;16501;51.462;14.346;2023-04-08T02:10:11;100483.31;;;4.44;100.00
29569;BME280;16501;51.462;14.346;2023-04-08T02:12:38;100486.22;;;4.37;100.00
29569;BME280;16501;51.462;14.346;2023-04-08T02:15:04;100465.31;;;4.32;100.00
29569;BME280;16501;51.462;14.346;2023-04-08T02:17:41;100479.91;;;4.36;100.00
29569;BME280;16501;51.462;14.346;2023-04-08T02:20:10;100463.44;;;4.25;100.00
29569;BME280;16501;51.462;14.346;2023-04-08T02:22:46;100476.03;;;4.30;100.00
29569;BME280;16501;51.462;14.346;2023-04-08T02:25:14;100461.16;;;4.20;100.00
29569;BME280;16501;51.462;14.346;2023-04-08T02:27:41;100474.13;;;4.27;100.00
29569;BME280;16501;51.462;14.346;2023-04-08T02:30:09;100463.03;;;4.27;100.00
29569;BME280;16501;51.462;14.346;2023-04-08T02:32:36;100481.44;;;4.37;100.00
29569;BME280;16501;51.462;14.346;2023-04-08T02:35:03;100469.72;;;4.29;100.00
29569;BME280;16501;51.462;14.346;2023-04-08T02:37:37;100474.19;;;4.23;100.00
29569;BME280;16501;51.462;14.346;2023-04-08T02:40:02;100464.28;;;4.22;100.00
29569;BME280;16501;51.462;14.346;2023-04-08T02:42:27;100477.53;;;4.34;100.00
29569;BME280;16501;51.462;14.346;2023-04-08T02:44:53;100468.63;;;4.23;100.00
29569;BME280;16501;51.462;14.346;2023-04-08T02:47:18;100482.44;;;4.27;100.00
29569;BME280;16501;51.462;14.346;2023-04-08T02:49:43;100499.81;;;4.31;100.00
29569;BME280;16501;51.462;14.346;2023-04-08T02:52:09;100486.28;;;4.33;100.00
29569;BME280;16501;51.462;14.346;2023-04-08T02:54:34;100466.72;;;4.20;100.00
29569;BME280;16501;51.462;14.346;2023-04-08T02:57:01;100442.47;;;4.01;100.00
29569;BME280;16501;51.462;14.346;2023-04-08T02:59:26;100484.78;;;4.28;100.00
29569;BME280;16501;51.462;14.346;2023-04-08T03:01:51;100480.53;;;4.24;100.00
29569;BME280;16501;51.462;14.346;2023-04-08T03:04:17;100476.84;;;4.30;100.00
29569;BME280;16501;51.462;14.346;2023-04-08T03:06:42;100478.66;;;4.37;100.00
29569;BME280;16501;51.462;14.346;2023-04-08T03:09:07;100454.88;;;4.16;100.00
29569;BME280;16501;51.462;14.346;2023-04-08T03:11:33;100458.94;;;4.11;100.00
29569;BME280;16501;51.462;14.346;2023-04-08T03:13:59;100473.81;;;4.21;100.00
29569;BME280;16501;51.462;14.346;2023-04-08T03:16:24;100480.88;;;4.26;100.00
29569;BME280;16501;51.462;14.346;2023-04-08T03:18:50;100480.81;;;4.29;100.00
29569;BME280;16501;51.462;14.346;2023-04-08T03:21:15;100473.69;;;4.28;100.00
29569;BME280;16501;51.462;14.346;2023-04-08T03:23:41;100465.88;;;4.23;100.00
29569;BME280;16501;51.462;14.346;2023-04-08T03:26:06;100494.91;;;4.39;100.00
29569;BME280;16501;51.462;14.346;2023-04-08T03:28:31;100500.84;;;4.41;100.00
29569;BME280;16501;51.462;14.346;2023-04-08T03:30:57;100485.88;;;4.34;100.00
29569;BME280;16501;51.462;14.346;2023-04-08T03:33:22;100503.97;;;4.43;100.00
29569;BME280;16501;51.462;14.346;2023-04-08T03:35:47;100493.00;;;4.36;100.00
29569;BME280;16501;51.462;14.346;2023-04-08T03:38:12;100497.34;;;4.37;100.00
29569;BME280;16501;51.462;14.346;2023-04-08T03:40:38;100507.47;;;4.47;100.00
29569;BME280;16501;51.462;14.346;2023-04-08T03:43:03;100497.19;;;4.44;100.00
29569;BME280;16501;51.462;14.346;2023-04-08T03:45:30;100491.78;;;4.37;100.00
29569;BME280;16501;51.462;14.346;2023-04-08T03:47:55;100516.06;;;4.52;100.00
29569;BME280;16501;51.462;14.346;2023-04-08T03:50:21;100480.75;;;4.33;100.00
29569;BME280;16501;51.462;14.346;2023-04-08T03:52:46;100498.78;;;4.45;100.00
29569;BME280;16501;51.462;14.346;2023-04-08T03:55:11;100491.66;;;4.44;100.00
29569;BME280;16501;51.462;14.346;2023-04-08T03:57:37;100486.97;;;4.41;100.00
29569;BME280;16501;51.462;14.346;2023-04-08T04:00:02;100509.75;;;4.52;100.00
29569;BME280;16501;51.462;14.346;2023-04-08T04:02:28;100505.41;;;4.51;100.00
29569;BME280;16501;51.462;14.346;2023-04-08T04:04:53;100498.72;;;4.48;100.00
29569;BME280;16501;51.462;14.346;2023-04-08T04:07:18;100495.59;;;4.46;100.00
29569;BME280;16501;51.462;14.346;2023-04-08T04:09:44;100496.78;;;4.45;100.00
29569;BME280;16501;51.462;14.346;2023-04-08T04:12:09;100512.47;;;4.56;100.00
29569;BME280;16501;51.462;14.346;2023-04-08T04:14:34;100488.22;;;4.36;100.00
29569;BME280;16501;51.462;14.346;2023-04-08T04:17:00;100508.97;;;4.51;100.00
29569;BME280;16501;51.462;14.346;2023-04-08T04:19:29;100523.84;;;4.61;100.00
29569;BME280;16501;51.462;14.346;2023-04-08T04:21:54;100494.06;;;4.42;100.00
29569;BME280;16501;51.462;14.346;2023-04-08T04:24:19;100514.09;;;4.53;100.00
29569;BME280;16501;51.462;14.346;2023-04-08T04:26:44;100493.50;;;4.30;100.00
29569;BME280;16501;51.462;14.346;2023-04-08T04:29:10;100521.69;;;4.49;100.00
29569;BME280;16501;51.462;14.346;2023-04-08T04:31:35;100531.59;;;4.50;100.00
29569;BME280;16501;51.462;14.346;2023-04-08T04:34:00;100524.00;;;4.54;100.00
29569;BME280;16501;51.462;14.346;2023-04-08T04:36:25;100505.94;;;4.42;100.00
29569;BME280;16501;51.462;14.346;2023-04-08T04:38:51;100542.81;;;4.66;100.00
29569;BME280;16501;51.462;14.346;2023-04-08T04:41:16;100549.03;;;4.74;100.00
29569;BME280;16501;51.462;14.346;2023-04-08T04:43:42;100547.16;;;4.67;100.00
29569;BME280;16501;51.462;14.346;2023-04-08T04:46:07;100549.09;;;4.70;100.00
29569;BME280;16501;51.462;14.346;2023-04-08T04:48:34;100536.41;;;4.69;100.00
29569;BME280;16501;51.462;14.346;2023-04-08T04:51:00;100570.19;;;4.88;100.00
29569;BME280;16501;51.462;14.346;2023-04-08T04:53:27;100520.59;;;4.66;100.00
29569;BME280;16501;51.462;14.346;2023-04-08T04:55:52;100543.69;;;4.83;100.00
29569;BME280;16501;51.462;14.346;2023-04-08T04:58:17;100571.53;;;5.00;100.00
29569;BME280;16501;51.462;14.346;2023-04-08T05:00:44;100568.47;;;4.94;100.00
29569;BME280;16501;51.462;14.346;2023-04-08T05:03:12;100559.94;;;4.85;100.00
29569;BME280;16501;51.462;14.346;2023-04-08T05:05:37;100576.75;;;4.98;100.00
29569;BME280;16501;51.462;14.346;2023-04-08T05:08:02;100587.66;;;5.08;100.00
29569;BME280;16501;51.462;14.346;2023-04-08T05:10:28;100563.72;;;4.95;100.00
29569;BME280;16501;51.462;14.346;2023-04-08T05:12:53;100581.88;;;4.99;100.00
29569;BME280;16501;51.462;14.346;2023-04-08T05:15:19;100588.03;;;5.10;100.00
29569;BME280;16501;51.462;14.346;2023-04-08T05:17:45;100543.34;;;4.81;100.00
29569;BME280;16501;51.462;14.346;2023-04-08T05:20:10;100590.06;;;5.06;100.00
29569;BME280;16501;51.462;14.346;2023-04-08T05:22:36;100578.97;;;5.06;100.00
29569;BME280;16501;51.462;14.346;2023-04-08T05:25:01;100605.34;;;5.18;100.00
29569;BME280;16501;51.462;14.346;2023-04-08T05:27:26;100606.59;;;5.14;100.00
29569;BME280;16501;51.462;14.346;2023-04-08T05:29:52;100623.44;;;5.26;100.00
29569;BME280;16501;51.462;14.346;2023-04-08T05:32:17;100612.41;;;5.23;100.00
29569;BME280;16501;51.462;14.346;2023-04-08T05:34:43;100619.91;;;5.26;100.00
29569;BME280;16501;51.462;14.346;2023-04-08T05:37:08;100616.03;;;5.20;100.00
29569;BME280;16501;51.462;14.346;2023-04-08T05:39:34;100640.84;;;5.31;100.00
29569;BME280;16501;51.462;14.346;2023-04-08T05:41:59;100633.00;;;5.25;100.00
29569;BME280;16501;51.462;14.346;2023-04-08T05:44:24;100635.34;;;5.27;100.00
29569;BME280;16501;51.462;14.346;2023-04-08T05:46:50;100632.28;;;5.21;100.00
29569;BME280;16501;51.462;14.346;2023-04-08T05:49:15;100639.03;;;5.20;100.00
29569;BME280;16501;51.462;14.346;2023-04-08T05:51:41;100623.78;;;5.08;100.00
29569;BME280;16501;51.462;14.346;2023-04-08T05:54:07;100604.53;;;4.98;100.00
29569;BME280;16501;51.462;14.346;2023-04-08T05:56:32;100630.50;;;5.11;100.00
29569;BME280;16501;51.462;14.346;2023-04-08T05:58:57;100645.91;;;5.16;100.00
29569;BME280;16501;51.462;14.346;2023-04-08T06:01:22;100662.03;;;5.24;100.00
29569;BME280;16501;51.462;14.346;2023-04-08T06:03:48;100648.19;;;5.21;100.00
29569;BME280;16501;51.462;14.346;2023-04-08T06:06:13;100648.19;;;5.21;100.00
29569;BME280;16501;51.462;14.346;2023-04-08T06:08:39;100632.50;;;5.10;100.00
29569;BME280;16501;51.462;14.346;2023-04-08T06:11:04;100653.88;;;5.14;100.00
29569;BME280;16501;51.462;14.346;2023-04-08T06:13:30;100676.78;;;5.21;100.00
29569;BME280;16501;51.462;14.346;2023-04-08T06:15:55;100653.00;;;5.17;100.00
29569;BME280;16501;51.462;14.346;2023-04-08T06:18:21;100628.91;;;4.90;100.00
29569;BME280;16501;51.462;14.346;2023-04-08T06:20:46;100679.13;;;5.23;100.00
29569;BME280;16501;51.462;14.346;2023-04-08T06:23:11;100676.84;;;5.38;100.00
29569;BME280;16501;51.462;14.346;2023-04-08T06:25:37;100676.69;;;5.25;100.00
29569;BME280;16501;51.462;14.346;2023-04-08T06:28:02;100664.72;;;5.28;100.00
29569;BME280;16501;51.462;14.346;2023-04-08T06:30:27;100680.84;;;5.37;100.00
29569;BME280;16501;51.462;14.346;2023-04-08T06:32:53;100655.31;;;5.22;100.00
29569;BME280;16501;51.462;14.346;2023-04-08T06:35:18;100684.41;;;5.37;100.00
29569;BME280;16501;51.462;14.346;2023-04-08T06:37:43;100693.28;;;5.52;100.00
29569;BME280;16501;51.462;14.346;2023-04-08T06:40:09;100666.22;;;5.33;100.00
29569;BME280;16501;51.462;14.346;2023-04-08T06:42:35;100678.72;;;5.44;100.00
29569;BME280;16501;51.462;14.346;2023-04-08T06:45:02;100697.03;;;5.62;100.00
29569;BME280;16501;51.462;14.346;2023-04-08T06:47:28;100672.16;;;5.55;100.00
29569;BME280;16501;51.462;14.346;2023-04-08T06:49:53;100697.25;;;5.71;100.00
29569;BME280;16501;51.462;14.346;2023-04-08T06:52:19;100684.25;;;5.84;100.00
29569;BME280;16501;51.462;14.346;2023-04-08T06:54:44;100706.88;;;6.07;100.00
29569;BME280;16501;51.462;14.346;2023-04-08T06:57:10;100687.13;;;6.01;100.00
29569;BME280;16501;51.462;14.346;2023-04-08T06:59:35;100702.28;;;6.16;100.00
29569;BME280;16501;51.462;14.346;2023-04-08T07:02:01;100710.13;;;6.21;100.00
29569;BME280;16501;51.462;14.346;2023-04-08T07:04:26;100709.53;;;6.30;100.00
29569;BME280;16501;51.462;14.346;2023-04-08T07:06:51;100710.69;;;6.33;100.00
29569;BME280;16501;51.462;14.346;2023-04-08T07:09:17;100723.06;;;6.48;100.00
29569;BME280;16501;51.462;14.346;2023-04-08T07:11:45;100700.59;;;6.39;100.00
29569;BME280;16501;51.462;14.346;2023-04-08T07:14:11;100718.53;;;6.54;100.00
29569;BME280;16501;51.462;14.346;2023-04-08T07:16:36;100734.50;;;6.87;100.00
29569;BME280;16501;51.462;14.346;2023-04-08T07:19:01;100722.03;;;6.75;100.00
29569;BME280;16501;51.462;14.346;2023-04-08T07:21:26;100749.13;;;6.91;100.00
29569;BME280;16501;51.462;14.346;2023-04-08T07:23:52;100739.22;;;6.90;100.00
29569;BME280;16501;51.462;14.346;2023-04-08T07:26:17;100730.47;;;6.88;100.00
29569;BME280;16501;51.462;14.346;2023-04-08T07:28:42;100745.28;;;7.01;100.00
29569;BME280;16501;51.462;14.346;2023-04-08T07:31:15;100726.13;;;6.87;100.00
29569;BME280;16501;51.462;14.346;2023-04-08T07:33:41;100720.31;;;6.81;100.00
29569;BME280;16501;51.462;14.346;2023-04-08T07:36:08;100732.66;;;6.80;100.00
29569;BME280;16501;51.462;14.346;2023-04-08T07:38:34;100735.53;;;6.76;100.00
29569;BME280;16501;51.462;14.346;2023-04-08T07:41:00;100720.13;;;6.55;100.00
29569;BME280;16501;51.462;14.346;2023-04-08T07:43:25;100749.22;;;6.71;100.00
29569;BME280;16501;51.462;14.346;2023-04-08T07:45:50;100741.25;;;6.53;100.00
29569;BME280;16501;51.462;14.346;2023-04-08T07:48:16;100752.81;;;6.51;100.00
29569;BME280;16501;51.462;14.346;2023-04-08T07:50:41;100757.72;;;6.47;100.00
29569;BME280;16501;51.462;14.346;2023-04-08T07:53:06;100745.16;;;6.39;100.00
29569;BME280;16501;51.462;14.346;2023-04-08T07:55:33;100751.09;;;6.41;100.00
29569;BME280;16501;51.462;14.346;2023-04-08T07:57:58;100740.09;;;6.34;100.00
29569;BME280;16501;51.462;14.346;2023-04-08T08:00:24;100773.56;;;6.50;100.00
29569;BME280;16501;51.462;14.346;2023-04-08T08:02:49;100751.78;;;6.45;100.00
29569;BME280;16501;51.462;14.346;2023-04-08T08:05:15;100750.13;;;6.48;100.00
29569;BME280;16501;51.462;14.346;2023-04-08T08:07:40;100754.75;;;6.54;100.00
29569;BME280;16501;51.462;14.346;2023-04-08T08:10:06;100757.09;;;6.56;100.00
29569;BME280;16501;51.462;14.346;2023-04-08T08:12:31;100786.47;;;6.77;100.00
29569;BME280;16501;51.462;14.346;2023-04-08T08:14:57;100777.78;;;6.75;100.00
29569;BME280;16501;51.462;14.346;2023-04-08T08:17:23;100786.91;;;6.75;100.00
29569;BME280;16501;51.462;14.346;2023-04-08T08:19:49;100779.50;;;6.69;100.00
29569;BME280;16501;51.462;14.346;2023-04-08T08:22:15;100763.47;;;6.56;100.00
29569;BME280;16501;51.462;14.346;2023-04-08T08:24:40;100796.31;;;6.65;100.00
29569;BME280;16501;51.462;14.346;2023-04-08T08:27:05;100763.09;;;6.38;100.00
29569;BME280;16501;51.462;14.346;2023-04-08T08:29:31;100771.56;;;6.51;100.00
29569;BME280;16501;51.462;14.346;2023-04-08T08:31:56;100757.94;;;6.36;100.00
29569;BME280;16501;51.462;14.346;2023-04-08T08:34:22;100787.31;;;6.41;100.00
29569;BME280;16501;51.462;14.346;2023-04-08T08:36:47;100782.09;;;6.43;100.00
29569;BME280;16501;51.462;14.346;2023-04-08T08:39:12;100786.72;;;6.50;100.00
29569;BME280;16501;51.462;14.346;2023-04-08T08:41:37;100792.16;;;6.37;100.00
29569;BME280;16501;51.462;14.346;2023-04-08T08:44:06;100805.13;;;6.44;100.00
29569;BME280;16501;51.462;14.346;2023-04-08T08:46:32;100800.22;;;6.31;100.00
29569;BME280;16501;51.462;14.346;2023-04-08T08:48:57;100808.31;;;6.26;100.00
29569;BME280;16501;51.462;14.346;2023-04-08T08:51:23;100820.66;;;6.25;100.00
29569;BME280;16501;51.462;14.346;2023-04-08T08:53:48;100808.31;;;6.26;100.00
29569;BME280;16501;51.462;14.346;2023-04-08T08:56:13;100808.16;;;6.33;100.00
29569;BME280;16501;51.462;14.346;2023-04-08T08:58:39;100825.81;;;6.46;100.00
29569;BME280;16501;51.462;14.346;2023-04-08T09:04:16;100815.22;;;6.74;100.00
29569;BME280;16501;51.462;14.346;2023-04-08T09:06:45;100829.72;;;7.02;100.00
29569;BME280;16501;51.462;14.346;2023-04-08T09:09:11;100836.59;;;6.97;100.00
29569;BME280;16501;51.462;14.346;2023-04-08T09:11:38;100794.09;;;6.56;100.00
29569;BME280;16501;51.462;14.346;2023-04-08T09:14:05;100829.53;;;6.76;100.00
29569;BME280;16501;51.462;14.346;2023-04-08T09:16:40;100841.34;;;6.64;100.00
29569;BME280;16501;51.462;14.346;2023-04-08T09:19:15;100847.84;;;6.57;100.00
29569;BME280;16501;51.462;14.346;2023-04-08T09:21:41;100835.88;;;6.40;100.00
29569;BME280;16501;51.462;14.346;2023-04-08T09:24:07;100841.00;;;6.41;100.00
29569;BME280;16501;51.462;14.346;2023-04-08T09:26:34;100842.28;;;6.37;100.00
29569;BME280;16501;51.462;14.346;2023-04-08T09:29:06;100873.50;;;6.48;100.00
29569;BME280;16501;51.462;14.346;2023-04-08T09:31:36;100868.59;;;6.36;100.00
29569;BME280;16501;51.462;14.346;2023-04-08T09:34:12;100883.00;;;6.31;100.00
29569;BME280;16501;51.462;14.346;2023-04-08T09:36:39;100868.28;;;6.10;100.00
29569;BME280;16501;51.462;14.346;2023-04-08T09:39:05;100894.53;;;6.09;100.00
29569;BME280;16501;51.462;14.346;2023-04-08T09:41:33;100885.13;;;6.03;100.00
29569;BME280;16501;51.462;14.346;2023-04-08T09:44:02;100885.25;;;5.96;100.00
29569;BME280;16501;51.462;14.346;2023-04-08T09:49:11;100857.66;;;5.81;100.00
29569;BME280;16501;51.462;14.346;2023-04-08T09:51:42;100886.31;;;6.02;100.00
29569;BME280;16501;51.462;14.346;2023-04-08T09:54:13;100869.44;;;5.89;100.00
29569;BME280;16501;51.462;14.346;2023-04-08T09:56:59;100888.19;;;6.09;100.00
29569;BME280;16501;51.462;14.346;2023-04-08T09:59:29;100886.06;;;5.93;100.00
29569;BME280;16501;51.462;14.346;2023-04-08T10:02:00;100878.94;;;5.92;100.00
29569;BME280;16501;51.462;14.346;2023-04-08T10:04:28;100858.25;;;5.93;100.00
29569;BME280;16501;51.462;14.346;2023-04-08T10:06:58;100873.72;;;5.94;100.00
29569;BME280;16501;51.462;14.346;2023-04-08T10:09:26;100878.34;;;6.04;100.00
29569;BME280;16501;51.462;14.346;2023-04-08T10:11:54;100889.72;;;6.13;100.00
29569;BME280;16501;51.462;14.346;2023-04-08T10:14:19;100886.94;;;6.13;100.00
29569;BME280;16501;51.462;14.346;2023-04-08T10:16:46;100879.84;;;6.09;100.00
29569;BME280;16501;51.462;14.346;2023-04-08T10:19:39;100896.69;;;6.21;100.00
29569;BME280;16501;51.462;14.346;2023-04-08T10:27:41;100892.00;;;6.18;100.00
29569;BME280;16501;51.462;14.346;2023-04-08T10:32:52;100879.22;;;6.01;100.00
29569;BME280;16501;51.462;14.346;2023-04-08T10:35:31;100911.00;;;6.23;100.00
29569;BME280;16501;51.462;14.346;2023-04-08T10:37:57;100910.25;;;6.19;100.00
29569;BME280;16501;51.462;14.346;2023-04-08T10:40:23;100917.56;;;6.13;100.00
29569;BME280;16501;51.462;14.346;2023-04-08T10:42:58;100917.56;;;6.13;100.00
29569;BME280;16501;51.462;14.346;2023-04-08T10:45:24;100921.97;;;6.11;100.00
29569;BME280;16501;51.462;14.346;2023-04-08T10:47:50;100914.22;;;5.98;100.00
29569;BME280;16501;51.462;14.346;2023-04-08T10:50:19;100935.19;;;6.07;100.00
29569;BME280;16501;51.462;14.346;2023-04-08T10:52:54;100906.69;;;5.95;100.00
29569;BME280;16501;51.462;14.346;2023-04-08T10:55:23;100912.69;;;5.94;100.00
29569;BME280;16501;51.462;14.346;2023-04-08T10:57:50;100915.47;;;5.94;100.00
29569;BME280;16501;51.462;14.346;2023-04-08T11:00:31;100939.22;;;6.02;100.00
29569;BME280;16501;51.462;14.346;2023-04-08T11:03:04;100931.53;;;5.86;100.00
29569;BME280;16501;51.462;14.346;2023-04-08T11:05:30;100936.66;;;5.88;100.00
29569;BME280;16501;51.462;14.346;2023-04-08T11:07:59;100919.84;;;5.71;100.00
29569;BME280;16501;51.462;14.346;2023-04-08T11:10:26;100959.66;;;5.92;100.00
29569;BME280;16501;51.462;14.346;2023-04-08T11:12:53;100933.31;;;5.73;100.00
29569;BME280;16501;51.462;14.346;2023-04-08T11:15:18;100953.72;;;5.90;100.00
29569;BME280;16501;51.462;14.346;2023-04-08T11:17:44;100922.94;;;5.77;100.00
29569;BME280;16501;51.462;14.346;2023-04-08T11:20:12;100940.66;;;5.86;100.00
29569;BME280;16501;51.462;14.346;2023-04-08T11:22:38;100958.28;;;6.03;100.00
29569;BME280;16501;51.462;14.346;2023-04-08T11:25:04;100944.53;;;5.93;100.00
29569;BME280;16501;51.462;14.346;2023-04-08T11:27:32;100930.63;;;5.93;100.00
29569;BME280;16501;51.462;14.346;2023-04-08T11:29:57;100952.88;;;5.93;100.00
29569;BME280;16501;51.462;14.346;2023-04-08T11:32:23;100957.50;;;6.03;100.00
29569;BME280;16501;51.462;14.346;2023-04-08T11:34:49;100927.81;;;5.69;100.00
29569;BME280;16501;51.462;14.346;2023-04-08T11:37:15;100970.78;;;5.92;100.00
29569;BME280;16501;51.462;14.346;2023-04-08T11:39:43;100975.69;;;5.84;100.00
29569;BME280;16501;51.462;14.346;2023-04-08T11:42:25;100960.38;;;5.72;100.00
29569;BME280;16501;51.462;14.346;2023-04-08T11:44:50;100934.16;;;5.46;100.00
29569;BME280;16501;51.462;14.346;2023-04-08T11:47:15;100968.25;;;5.77;100.00
29569;BME280;16501;51.462;14.346;2023-04-08T11:49:45;100970.00;;;5.91;100.00
29569;BME280;16501;51.462;14.346;2023-04-08T11:52:10;100947.09;;;5.83;100.00
29569;BME280;16501;51.462;14.346;2023-04-08T11:54:40;100943.44;;;5.86;100.00
29569;BME280;16501;51.462;14.346;2023-04-08T11:57:06;100914.81;;;5.86;100.00
29569;BME280;16501;51.462;14.346;2023-04-08T11:59:34;100970.59;;;6.06;100.00
29569;BME280;16501;51.462;14.346;2023-04-08T12:01:59;100965.06;;;6.02;100.00
29569;BME280;16501;51.462;14.346;2023-04-08T12:04:26;100971.78;;;6.05;100.00
29569;BME280;16501;51.462;14.346;2023-04-08T12:06:51;100968.16;;;6.08;100.00
29569;BME280;16501;51.462;14.346;2023-04-08T12:09:16;100983.22;;;6.11;100.00
29569;BME280;16501;51.462;14.346;2023-04-08T12:11:41;100965.78;;;6.07;100.00
29569;BME280;16501;51.462;14.346;2023-04-08T12:14:07;100956.00;;;5.98;100.00
29569;BME280;16501;51.462;14.346;2023-04-08T12:16:32;100971.06;;;6.01;100.00
29569;BME280;16501;51.462;14.346;2023-04-08T12:18:57;100966.28;;;6.01;100.00
29569;BME280;16501;51.462;14.346;2023-04-08T12:21:22;100967.91;;;5.99;100.00
29569;BME280;16501;51.462;14.346;2023-04-08T12:23:48;100963.66;;;5.91;100.00
29569;BME280;16501;51.462;14.346;2023-04-08T12:26:13;100971.13;;;5.94;100.00
29569;BME280;16501;51.462;14.346;2023-04-08T12:28:41;100967.53;;;5.97;100.00
29569;BME280;16501;51.462;14.346;2023-04-08T12:31:07;100972.28;;;6.00;100.00
29569;BME280;16501;51.462;14.346;2023-04-08T12:33:32;100981.63;;;5.86;100.00
29569;BME280;16501;51.462;14.346;2023-04-08T12:35:57;100984.50;;;6.06;100.00
29569;BME280;16501;51.462;14.346;2023-04-08T12:38:24;100982.09;;;6.08;100.00
29569;BME280;16501;51.462;14.346;2023-04-08T12:40:49;100954.88;;;5.92;100.00
29569;BME280;16501;51.462;14.346;2023-04-08T12:43:15;100966.38;;;5.94;100.00
29569;BME280;16501;51.462;14.346;2023-04-08T12:45:40;100984.94;;;6.04;100.00
29569;BME280;16501;51.462;14.346;2023-04-08T12:48:06;100978.34;;;5.91;100.00
29569;BME280;16501;51.462;14.346;2023-04-08T12:50:31;100971.91;;;5.98;100.00
29569;BME280;16501;51.462;14.346;2023-04-08T12:52:56;100986.13;;;6.03;100.00